createdAt,value
2022-10-17T00:00:31.131Z,100.00
2022-10-17T00:03:17.136Z,100.00
2022-10-17T00:06:07.248Z,100.00
2022-10-17T00:08:52.676Z,100.00
2022-10-17T00:11:38.344Z,100.00
2022-10-17T00:14:23.722Z,100.00
2022-10-17T00:17:09.032Z,100.00
2022-10-17T00:19:54.457Z,100.00
2022-10-17T00:22:40.069Z,100.00
2022-10-17T00:25:25.559Z,100.00
2022-10-17T00:28:15.614Z,100.00
2022-10-17T00:31:04.861Z,100.00
2022-10-17T00:33:50.925Z,100.00
2022-10-17T00:36:36.505Z,100.00
2022-10-17T00:39:21.966Z,100.00
2022-10-17T00:42:07.230Z,100.00
2022-10-17T00:45:16.819Z,100.00
2022-10-17T00:48:08.679Z,100.00
2022-10-17T00:50:55.086Z,100.00
2022-10-17T00:53:40.808Z,100.00
2022-10-17T00:56:26.744Z,100.00
2022-10-17T00:59:14.325Z,100.00
2022-10-17T01:02:08.539Z,100.00
2022-10-17T01:04:56.777Z,100.00
2022-10-17T01:07:43.186Z,100.00
2022-10-17T01:10:35.210Z,100.00
2022-10-17T01:13:32.156Z,100.00
2022-10-17T01:16:43.104Z,100.00
2022-10-17T01:19:59.703Z,100.00
2022-10-17T01:22:53.073Z,100.00
2022-10-17T01:25:41.144Z,100.00
2022-10-17T01:29:16.987Z,100.00
2022-10-17T01:32:26.905Z,100.00
2022-10-17T01:35:27.489Z,100.00
2022-10-17T01:38:24.017Z,100.00
2022-10-17T01:41:36.115Z,100.00
2022-10-17T01:44:30.057Z,100.00
2022-10-17T01:47:23.064Z,100.00
2022-10-17T01:50:16.998Z,100.00
2022-10-17T01:53:16.859Z,100.00
2022-10-17T01:56:07.115Z,100.00
2022-10-17T01:58:58.698Z,100.00
2022-10-17T02:01:47.293Z,100.00
2022-10-17T02:04:33.110Z,100.00
2022-10-17T02:07:18.694Z,100.00
2022-10-17T02:10:13.223Z,100.00
2022-10-17T02:13:15.993Z,100.00
2022-10-17T02:16:26.397Z,100.00
2022-10-17T02:19:46.934Z,100.00
2022-10-17T02:22:47.872Z,100.00
2022-10-17T02:25:42.343Z,100.00
2022-10-17T02:28:33.585Z,100.00
2022-10-17T02:31:40.092Z,100.00
2022-10-17T02:34:32.362Z,100.00
2022-10-17T02:37:25.523Z,100.00
2022-10-17T02:40:15.483Z,100.00
2022-10-17T02:43:01.228Z,100.00
2022-10-17T02:45:48.970Z,100.00
2022-10-17T02:48:40.572Z,100.00
2022-10-17T02:51:44.377Z,100.00
2022-10-17T02:54:35.965Z,100.00
2022-10-17T02:57:31.228Z,100.00
2022-10-17T03:00:19.083Z,100.00
2022-10-17T03:03:19.907Z,100.00
2022-10-17T03:06:05.414Z,100.00
2022-10-17T03:08:51.085Z,100.00
2022-10-17T03:11:36.570Z,100.00
2022-10-17T03:14:22.206Z,100.00
2022-10-17T03:17:07.456Z,100.00
2022-10-17T03:19:52.746Z,100.00
2022-10-17T03:22:38.086Z,100.00
2022-10-17T03:25:24.982Z,100.00
2022-10-17T03:28:12.331Z,100.00
2022-10-17T03:30:58.123Z,100.00
2022-10-17T03:33:43.536Z,100.00
2022-10-17T03:36:29.197Z,100.00
2022-10-17T03:39:14.943Z,100.00
2022-10-17T03:42:01.128Z,100.00
2022-10-17T03:44:46.572Z,100.00
2022-10-17T03:47:32.513Z,100.00
2022-10-17T03:50:18.493Z,100.00
2022-10-17T03:53:04.382Z,100.00
2022-10-17T03:55:50.185Z,100.00
2022-10-17T03:58:36.939Z,100.00
2022-10-17T04:01:23.485Z,100.00
2022-10-17T04:04:09.305Z,100.00
2022-10-17T04:06:55.544Z,100.00
2022-10-17T04:09:40.932Z,100.00
2022-10-17T04:12:32.473Z,100.00
2022-10-17T04:15:18.410Z,100.00
2022-10-17T04:20:54.667Z,100.00
2022-10-17T04:23:40.303Z,100.00
2022-10-17T04:26:36.473Z,100.00
2022-10-17T04:29:21.905Z,100.00
2022-10-17T04:32:09.812Z,100.00
2022-10-17T04:35:18.293Z,100.00
2022-10-17T04:38:08.841Z,100.00
2022-10-17T04:40:54.107Z,100.00
2022-10-17T04:43:40.388Z,100.00
2022-10-17T04:46:25.868Z,100.00
2022-10-17T04:49:11.265Z,100.00
2022-10-17T04:51:59.075Z,100.00
2022-10-17T04:54:50.165Z,100.00
2022-10-17T04:57:36.768Z,100.00
2022-10-17T05:00:33.200Z,100.00
2022-10-17T05:03:29.982Z,100.00
2022-10-17T05:06:21.719Z,100.00
2022-10-17T05:09:24.963Z,100.00
2022-10-17T05:12:10.897Z,100.00
2022-10-17T05:14:59.880Z,100.00
2022-10-17T05:17:46.805Z,100.00
2022-10-17T05:20:33.396Z,100.00
2022-10-17T05:23:19.585Z,100.00
2022-10-17T05:26:05.697Z,100.00
2022-10-17T05:28:52.668Z,100.00
2022-10-17T05:31:40.534Z,100.00
2022-10-17T05:34:27.141Z,100.00
2022-10-17T05:37:12.759Z,100.00
2022-10-17T05:40:01.092Z,100.00
2022-10-17T05:42:49.160Z,100.00
2022-10-17T05:45:37.009Z,100.00
2022-10-17T05:48:24.150Z,100.00
2022-10-17T05:51:10.464Z,100.00
2022-10-17T05:53:56.110Z,100.00
2022-10-17T05:56:45.368Z,100.00
2022-10-17T05:59:31.138Z,100.00
2022-10-17T06:02:25.618Z,100.00
2022-10-17T06:05:12.282Z,100.00
2022-10-17T06:08:01.023Z,100.00
2022-10-17T06:10:50.827Z,100.00
2022-10-17T06:13:36.544Z,100.00
2022-10-17T06:16:28.541Z,100.00
2022-10-17T06:19:14.110Z,100.00
2022-10-17T06:21:59.511Z,100.00
2022-10-17T06:24:46.549Z,100.00
2022-10-17T06:27:33.035Z,100.00
2022-10-17T06:30:18.392Z,100.00
2022-10-17T06:33:04.272Z,100.00
2022-10-17T06:35:54.878Z,100.00
2022-10-17T06:38:42.046Z,100.00
2022-10-17T06:41:36.194Z,100.00
2022-10-17T06:44:30.652Z,100.00
2022-10-17T06:47:36.023Z,100.00
2022-10-17T06:50:31.167Z,100.00
2022-10-17T06:53:36.331Z,100.00
2022-10-17T06:56:29.160Z,100.00
2022-10-17T06:59:26.617Z,100.00
2022-10-17T07:02:24.331Z,100.00
2022-10-17T07:05:11.463Z,100.00
2022-10-17T07:07:56.913Z,100.00
2022-10-17T07:10:42.263Z,100.00
2022-10-17T07:13:28.255Z,100.00
2022-10-17T07:16:14.678Z,100.00
2022-10-17T07:19:01.316Z,100.00
2022-10-17T07:21:52.268Z,100.00
2022-10-17T07:24:38.788Z,100.00
2022-10-17T07:27:34.746Z,100.00
2022-10-17T07:30:21.458Z,100.00
2022-10-17T07:33:28.592Z,100.00
2022-10-17T07:36:15.041Z,100.00
2022-10-17T07:39:01.145Z,100.00
2022-10-17T07:41:50.801Z,100.00
2022-10-17T07:44:37.084Z,100.00
2022-10-17T07:47:24.587Z,100.00
2022-10-17T07:50:11.548Z,100.00
2022-10-17T07:52:56.807Z,100.00
2022-10-17T07:55:43.293Z,100.00
2022-10-17T07:58:29.611Z,100.00
2022-10-17T08:01:15.989Z,100.00
2022-10-17T08:04:01.911Z,100.00
2022-10-17T08:06:48.967Z,100.00
2022-10-17T08:09:36.240Z,100.00
2022-10-17T08:12:22.153Z,100.00
2022-10-17T08:15:08.882Z,100.00
2022-10-17T08:17:55.835Z,100.00
2022-10-17T08:20:42.426Z,100.00
2022-10-17T08:23:28.922Z,100.00
2022-10-17T08:26:17.319Z,100.00
2022-10-17T08:29:02.984Z,100.00
2022-10-17T08:31:49.979Z,100.00
2022-10-17T08:34:37.732Z,100.00
2022-10-17T08:37:23.510Z,100.00
2022-10-17T08:40:19.502Z,100.00
2022-10-17T08:43:14.695Z,100.00
2022-10-17T08:46:03.867Z,100.00
2022-10-17T09:09:33.225Z,100.00
2022-10-17T09:12:32.438Z,100.00
2022-10-17T09:15:35.993Z,100.00
2022-10-17T09:18:29.166Z,100.00
2022-10-17T09:21:39.217Z,100.00
2022-10-17T09:24:59.530Z,100.00
2022-10-17T09:28:06.525Z,100.00
2022-10-17T09:30:59.858Z,100.00
2022-10-17T09:33:55.436Z,100.00
2022-10-17T09:36:42.639Z,100.00
2022-10-17T09:39:32.186Z,100.00
2022-10-17T09:42:21.828Z,100.00
2022-10-17T09:45:19.562Z,100.00
2022-10-17T09:48:10.425Z,100.00
2022-10-17T09:51:08.238Z,100.00
2022-10-17T09:54:05.518Z,100.00
2022-10-17T09:57:04.084Z,100.00
2022-10-17T09:59:55.935Z,100.00
2022-10-17T10:02:41.463Z,100.00
2022-10-17T10:05:27.211Z,100.00
2022-10-17T10:08:19.153Z,100.00
2022-10-17T10:11:09.599Z,100.00
2022-10-17T10:14:12.886Z,100.00
2022-10-17T10:16:58.291Z,100.00
2022-10-17T10:19:50.778Z,100.00
2022-10-17T10:22:36.356Z,100.00
2022-10-17T10:25:22.140Z,100.00
2022-10-17T10:28:12.124Z,100.00
2022-10-17T10:31:00.368Z,100.00
2022-10-17T10:33:49.574Z,100.00
2022-10-17T10:37:00.960Z,100.00
2022-10-17T10:39:53.284Z,100.00
2022-10-17T10:42:40.534Z,100.00
2022-10-17T10:45:46.952Z,100.00
2022-10-17T10:48:37.550Z,100.00
2022-10-17T10:51:45.956Z,100.00
2022-10-17T10:54:44.952Z,100.00
2022-10-17T10:57:35.437Z,100.00
2022-10-17T11:00:26.078Z,100.00
2022-10-17T11:03:26.725Z,100.00
2022-10-17T11:06:23.885Z,100.00
2022-10-17T11:09:40.831Z,100.00
2022-10-17T11:12:34.860Z,100.00
2022-10-17T11:15:30.771Z,100.00
2022-10-17T11:18:40.989Z,100.00
2022-10-17T11:21:43.867Z,100.00
2022-10-17T11:24:37.394Z,100.00
2022-10-17T11:27:29.607Z,100.00
2022-10-17T11:30:16.195Z,100.00
2022-10-17T11:33:04.746Z,100.00
2022-10-17T11:35:54.523Z,100.00
2022-10-17T11:38:47.002Z,100.00
2022-10-17T11:41:36.047Z,100.00
2022-10-17T11:44:21.479Z,100.00
2022-10-17T11:47:26.021Z,100.00
2022-10-17T11:53:47.906Z,100.00
2022-10-17T11:57:01.429Z,100.00
2022-10-17T12:00:23.281Z,100.00
2022-10-17T12:03:48.289Z,100.00
2022-10-17T12:06:49.097Z,100.00
2022-10-17T12:09:54.362Z,100.00
2022-10-17T12:12:40.769Z,100.00
2022-10-17T12:15:26.412Z,100.00
2022-10-17T12:18:17.463Z,100.00
2022-10-17T12:21:02.728Z,100.00
2022-10-17T12:23:56.217Z,100.00
2022-10-17T12:26:41.727Z,100.00
2022-10-17T12:29:30.304Z,100.00
2022-10-17T12:32:16.482Z,100.00
2022-10-17T12:35:02.231Z,100.00
2022-10-17T12:37:57.376Z,100.00
2022-10-17T12:40:48.710Z,100.00
2022-10-17T12:46:52.112Z,100.00
2022-10-17T12:49:43.162Z,100.00
2022-10-17T12:52:31.471Z,100.00
2022-10-17T12:55:24.295Z,100.00
2022-10-17T12:58:16.642Z,100.00
2022-10-17T13:01:23.016Z,100.00
2022-10-17T13:04:11.158Z,100.00
2022-10-17T13:06:58.962Z,100.00
2022-10-17T13:09:45.275Z,100.00
2022-10-17T13:12:40.284Z,100.00
2022-10-17T13:15:28.122Z,100.00
2022-10-17T13:18:21.190Z,100.00
2022-10-17T13:21:15.533Z,100.00
2022-10-17T13:24:01.356Z,100.00
2022-10-17T13:26:47.554Z,100.00
2022-10-17T13:29:33.327Z,100.00
2022-10-17T13:32:19.139Z,100.00
2022-10-17T13:35:07.331Z,100.00
2022-10-17T13:37:54.247Z,100.00
2022-10-17T13:40:49.888Z,100.00
2022-10-17T13:43:35.735Z,100.00
2022-10-17T13:46:38.011Z,100.00
2022-10-17T13:49:42.373Z,100.00
2022-10-17T13:52:30.503Z,100.00
2022-10-17T13:55:20.160Z,100.00
2022-10-17T13:58:18.365Z,100.00
2022-10-17T14:01:04.190Z,100.00
2022-10-17T14:04:02.235Z,100.00
2022-10-17T14:06:53.958Z,100.00
2022-10-17T14:09:39.592Z,98.18
2022-10-17T14:12:25.923Z,99.19
2022-10-17T14:15:15.936Z,96.61
2022-10-17T14:18:08.156Z,97.28
2022-10-17T14:24:22.364Z,96.14
2022-10-17T14:27:30.968Z,96.86
2022-10-17T14:30:51.749Z,94.23
2022-10-17T14:33:32.138Z,95.02
2022-10-17T14:36:19.633Z,95.65
2022-10-17T14:39:13.297Z,95.08
2022-10-17T14:42:04.274Z,94.71
2022-10-17T14:44:52.268Z,95.90
2022-10-17T14:47:43.718Z,93.92
2022-10-17T14:50:32.359Z,92.76
2022-10-17T14:53:18.208Z,93.07
2022-10-17T14:56:21.149Z,92.53
2022-10-17T14:59:11.757Z,94.38
2022-10-17T15:01:58.081Z,93.36
2022-10-17T15:04:43.711Z,92.83
2022-10-17T15:07:29.612Z,94.21
2022-10-17T15:10:35.661Z,95.51
2022-10-17T15:13:30.360Z,93.68
2022-10-17T15:16:26.545Z,95.92
2022-10-17T15:19:13.968Z,96.84
2022-10-17T15:21:59.657Z,99.53
2022-10-17T15:24:48.828Z,100.00
2022-10-17T15:27:34.961Z,100.00
2022-10-17T15:30:34.683Z,100.00
2022-10-17T15:33:20.512Z,100.00
2022-10-17T15:36:06.312Z,100.00
2022-10-17T15:38:55.469Z,100.00
2022-10-17T15:41:41.260Z,100.00
2022-10-17T15:44:26.751Z,100.00
2022-10-17T15:47:23.533Z,100.00
2022-10-17T15:50:14.523Z,100.00
2022-10-17T15:53:00.383Z,100.00
2022-10-17T15:55:46.260Z,100.00
2022-10-17T15:58:37.185Z,100.00
2022-10-17T16:01:31.004Z,100.00
2022-10-17T16:04:17.245Z,100.00
2022-10-17T16:07:02.905Z,100.00
2022-10-17T16:09:48.837Z,100.00
2022-10-17T16:12:38.100Z,100.00
2022-10-17T16:15:28.241Z,100.00
2022-10-17T16:18:14.235Z,100.00
2022-10-17T16:21:00.095Z,100.00
2022-10-17T16:23:45.606Z,100.00
2022-10-17T16:26:31.650Z,100.00
2022-10-17T16:29:17.488Z,100.00
2022-10-17T16:32:03.472Z,100.00
2022-10-17T16:34:48.951Z,100.00
2022-10-17T16:37:35.865Z,100.00
2022-10-17T16:40:21.137Z,100.00
2022-10-17T16:43:07.665Z,100.00
2022-10-17T16:45:53.067Z,100.00
2022-10-17T16:51:24.682Z,100.00
2022-10-17T16:54:10.215Z,100.00
2022-10-17T16:56:57.783Z,100.00
2022-10-17T16:59:45.739Z,100.00
2022-10-17T17:02:33.064Z,100.00
2022-10-17T17:05:18.628Z,100.00
2022-10-17T17:08:04.929Z,100.00
2022-10-17T17:10:54.693Z,100.00
2022-10-17T17:13:41.312Z,100.00
2022-10-17T17:16:28.003Z,100.00
2022-10-17T17:19:17.178Z,100.00
2022-10-17T17:22:02.453Z,100.00
2022-10-17T17:27:33.423Z,100.00
2022-10-17T17:30:19.148Z,100.00
2022-10-17T17:33:04.530Z,100.00
2022-10-17T17:36:00.756Z,100.00
2022-10-17T17:38:48.109Z,100.00
2022-10-17T17:41:34.436Z,100.00
2022-10-17T17:44:20.159Z,100.00
2022-10-17T17:47:05.466Z,100.00
2022-10-17T17:49:50.859Z,100.00
2022-10-17T17:52:36.268Z,100.00
2022-10-17T17:55:21.664Z,100.00
2022-10-17T17:58:08.416Z,100.00
2022-10-17T18:00:54.007Z,100.00
2022-10-17T18:03:40.706Z,100.00
2022-10-17T18:06:27.689Z,100.00
2022-10-17T18:09:13.180Z,100.00
2022-10-17T18:11:58.858Z,100.00
2022-10-17T18:14:44.359Z,100.00
2022-10-17T18:17:30.318Z,100.00
2022-10-17T18:20:16.463Z,100.00
2022-10-17T18:23:04.094Z,100.00
2022-10-17T18:26:01.290Z,100.00
2022-10-17T18:28:47.298Z,100.00
2022-10-17T18:31:36.151Z,100.00
2022-10-17T18:34:21.667Z,100.00
2022-10-17T18:37:07.201Z,100.00
2022-10-17T18:39:55.425Z,100.00
2022-10-17T18:42:43.331Z,100.00
2022-10-17T18:45:28.616Z,100.00
2022-10-17T18:48:14.172Z,100.00
2022-10-17T18:51:00.938Z,100.00
2022-10-17T18:53:49.255Z,100.00
2022-10-17T18:56:34.841Z,100.00
2022-10-17T18:59:21.001Z,100.00
2022-10-17T19:02:06.749Z,100.00
2022-10-17T19:04:52.170Z,100.00
2022-10-17T19:07:37.558Z,100.00
2022-10-17T19:10:22.833Z,100.00
2022-10-17T19:13:11.878Z,100.00
2022-10-17T19:15:57.230Z,100.00
2022-10-17T19:18:44.015Z,100.00
2022-10-17T19:21:30.000Z,100.00
2022-10-17T19:24:26.965Z,100.00
2022-10-17T19:27:12.547Z,100.00
2022-10-17T19:29:57.843Z,100.00
2022-10-17T19:32:44.362Z,100.00
2022-10-17T19:35:30.096Z,100.00
2022-10-17T19:38:15.412Z,100.00
2022-10-17T19:41:01.353Z,100.00
2022-10-17T19:43:47.153Z,100.00
2022-10-17T19:46:34.176Z,100.00
2022-10-17T19:49:20.272Z,100.00
2022-10-17T19:52:05.706Z,100.00
2022-10-17T19:54:51.236Z,100.00
2022-10-17T19:57:36.856Z,100.00
2022-10-17T20:00:22.250Z,100.00
2022-10-17T20:03:07.915Z,100.00
2022-10-17T20:05:53.402Z,100.00
2022-10-17T20:08:40.270Z,100.00
2022-10-17T20:11:27.735Z,100.00
2022-10-17T20:14:13.293Z,100.00
2022-10-17T20:16:59.224Z,100.00
2022-10-17T20:19:44.744Z,100.00
2022-10-17T20:22:30.891Z,100.00
2022-10-17T20:25:16.886Z,100.00
2022-10-17T20:28:02.525Z,100.00
2022-10-17T20:30:48.035Z,100.00
2022-10-17T20:33:33.524Z,100.00
2022-10-17T20:36:23.376Z,100.00
2022-10-17T20:39:12.248Z,100.00
2022-10-17T20:41:57.810Z,100.00
2022-10-17T20:47:45.927Z,100.00
2022-10-17T20:50:35.776Z,100.00
2022-10-17T20:53:37.835Z,100.00
2022-10-17T20:56:26.848Z,100.00
2022-10-17T20:59:14.390Z,100.00
2022-10-17T21:02:00.265Z,100.00
2022-10-17T21:04:47.570Z,100.00
2022-10-17T21:07:33.098Z,100.00
2022-10-17T21:10:35.029Z,100.00
2022-10-17T21:13:21.651Z,100.00
2022-10-17T21:16:09.089Z,100.00
2022-10-17T21:18:55.977Z,100.00
2022-10-17T21:21:44.145Z,100.00
2022-10-17T21:24:30.828Z,100.00
2022-10-17T21:27:18.358Z,100.00
2022-10-17T21:30:04.663Z,100.00
2022-10-17T21:32:53.960Z,100.00
2022-10-17T21:35:39.853Z,100.00
2022-10-17T21:38:25.287Z,100.00
2022-10-17T21:41:12.011Z,100.00
2022-10-17T21:44:04.618Z,100.00
2022-10-17T21:46:51.497Z,100.00
2022-10-17T21:49:36.864Z,100.00
2022-10-17T21:52:22.224Z,100.00
2022-10-17T21:55:08.000Z,100.00
2022-10-17T21:57:53.330Z,100.00
2022-10-17T22:00:38.711Z,100.00
2022-10-17T22:03:24.178Z,100.00
2022-10-17T22:06:37.583Z,100.00
2022-10-17T22:09:19.477Z,100.00
2022-10-17T22:12:05.094Z,100.00
2022-10-17T22:14:50.655Z,100.00
2022-10-17T22:17:36.083Z,100.00
2022-10-17T22:20:21.544Z,100.00
2022-10-17T22:23:06.824Z,100.00
2022-10-17T22:25:56.664Z,100.00
2022-10-17T22:28:42.668Z,100.00
2022-10-17T22:31:28.380Z,100.00
2022-10-17T22:34:16.403Z,100.00
2022-10-17T22:37:01.876Z,100.00
2022-10-17T22:39:47.366Z,100.00
2022-10-17T22:42:34.678Z,100.00
2022-10-17T22:45:20.530Z,100.00
2022-10-17T22:48:07.048Z,100.00
2022-10-17T22:50:53.509Z,100.00
2022-10-17T22:53:38.942Z,100.00
2022-10-17T22:56:24.334Z,100.00
2022-10-17T22:59:09.812Z,100.00
2022-10-17T23:01:55.175Z,100.00
2022-10-17T23:04:41.467Z,100.00
2022-10-17T23:07:27.670Z,100.00
2022-10-17T23:10:13.265Z,100.00
2022-10-17T23:12:58.633Z,100.00
2022-10-17T23:15:43.816Z,100.00
2022-10-17T23:21:19.586Z,100.00
2022-10-17T23:24:05.088Z,100.00
2022-10-17T23:26:50.739Z,100.00
2022-10-17T23:29:36.332Z,100.00
2022-10-17T23:32:21.890Z,100.00
2022-10-17T23:35:08.535Z,100.00
2022-10-17T23:37:53.864Z,100.00
2022-10-17T23:40:39.354Z,100.00
2022-10-17T23:43:26.694Z,100.00
2022-10-17T23:46:12.604Z,100.00
2022-10-17T23:48:58.383Z,100.00
2022-10-17T23:51:44.065Z,100.00
2022-10-17T23:54:29.454Z,100.00
2022-10-17T23:57:14.932Z,100.00
